Terminal Aerodrome Forecast
Issued by NWS

Home | Current Version | Previous Version | Graphics & Text | Print | Product List | Glossary On
Versions: 1 2 3 4 5 6 7 8 9 10 11 12 13 14 15 16 17 18 19 20 21
141
FTUS43 KABR 231416 AAA
TAFATY
TAF AMD
KATY 231416Z 2314/2412 33013KT P6SM FEW020
     FM232300 02009KT P6SM FEW250
     FM240300 07005KT P6SM FEW250=

USA.gov is the U.S. government's official web portal to all federal, state and local government web resources and services.